createdAt,value
2022-09-20T00:01:18.755Z,55.09
2022-09-20T00:03:48.376Z,55.56
2022-09-20T00:06:18.724Z,56.35
2022-09-20T00:08:48.730Z,56.69
2022-09-20T00:11:19.009Z,56.50
2022-09-20T00:13:48.767Z,55.87
2022-09-20T00:16:20.517Z,56.57
2022-09-20T00:18:49.609Z,55.81
2022-09-20T00:21:18.647Z,56.35
2022-09-20T00:23:47.902Z,56.50
2022-09-20T00:26:17.553Z,56.80
2022-09-20T00:28:47.115Z,56.50
2022-09-20T00:31:15.828Z,56.35
2022-09-20T00:34:01.671Z,56.12
2022-09-20T00:36:29.614Z,55.74
2022-09-20T00:39:00.482Z,55.64
2022-09-20T00:41:29.724Z,55.38
2022-09-20T00:43:58.070Z,54.00
2022-09-20T00:46:30.616Z,54.43
2022-09-20T00:49:04.836Z,54.96
2022-09-20T00:51:35.953Z,56.64
2022-09-20T00:54:08.569Z,55.88
2022-09-20T00:56:41.300Z,55.13
2022-09-20T00:59:16.200Z,55.21
2022-09-20T01:01:45.103Z,54.87
2022-09-20T01:04:14.420Z,55.58
2022-09-20T01:06:45.512Z,56.17
2022-09-20T01:09:16.196Z,55.98
2022-09-20T01:11:45.655Z,55.64
2022-09-20T01:14:18.926Z,55.78
2022-09-20T01:16:46.928Z,56.38
2022-09-20T01:19:20.593Z,56.25
2022-09-20T01:21:48.715Z,55.69
2022-09-20T01:24:26.264Z,55.82
2022-09-20T01:27:07.747Z,56.43
2022-09-20T01:29:48.586Z,56.35
2022-09-20T01:32:24.110Z,56.45
2022-09-20T01:34:57.904Z,56.36
2022-09-20T01:37:28.534Z,56.32
2022-09-20T01:40:10.465Z,56.27
2022-09-20T01:42:45.047Z,56.73
2022-09-20T01:45:23.766Z,56.96
2022-09-20T01:47:58.497Z,56.77
2022-09-20T01:50:34.812Z,56.88
2022-09-20T01:53:28.362Z,56.03
2022-09-20T01:56:33.116Z,56.61
2022-09-20T01:59:24.864Z,56.97
2022-09-20T02:02:07.602Z,57.34
2022-09-20T02:05:00.385Z,56.37
2022-09-20T02:07:49.227Z,57.04
2022-09-20T02:10:48.008Z,57.19
2022-09-20T02:13:30.989Z,56.83
2022-09-20T02:16:34.227Z,56.57
2022-09-20T02:19:20.112Z,55.98
2022-09-20T02:22:00.034Z,57.00
2022-09-20T02:24:38.361Z,57.55
2022-09-20T02:27:19.889Z,56.06
2022-09-20T02:30:01.480Z,56.28
2022-09-20T02:32:45.405Z,56.35
2022-09-20T02:35:20.936Z,56.98
2022-09-20T02:38:12.056Z,56.99
2022-09-20T02:40:53.095Z,56.43
2022-09-20T02:43:33.411Z,56.40
2022-09-20T02:46:10.584Z,56.15
2022-09-20T02:48:46.561Z,56.62
2022-09-20T02:51:22.827Z,56.13
2022-09-20T02:54:13.761Z,56.03
2022-09-20T02:56:48.301Z,56.06
2022-09-20T02:59:27.480Z,55.87
2022-09-20T03:02:07.297Z,56.42
2022-09-20T03:04:52.934Z,55.63
2022-09-20T03:07:33.299Z,56.11
2022-09-20T03:10:13.835Z,55.69
2022-09-20T03:12:57.277Z,55.54
2022-09-20T03:15:35.219Z,54.65
2022-09-20T03:18:10.148Z,55.19
2022-09-20T03:20:48.543Z,55.59
2022-09-20T03:23:37.983Z,55.59
2022-09-20T03:26:19.165Z,55.67
2022-09-20T03:28:59.020Z,56.11
2022-09-20T03:31:40.096Z,55.44
2022-09-20T03:34:21.775Z,56.02
2022-09-20T03:37:09.946Z,56.36
2022-09-20T03:40:11.771Z,56.25
2022-09-20T03:42:45.103Z,55.50
2022-09-20T03:45:46.551Z,56.05
2022-09-20T03:48:38.305Z,56.20
2022-09-20T03:51:20.483Z,56.63
2022-09-20T03:54:05.132Z,56.87
2022-09-20T03:57:07.375Z,56.52
2022-09-20T03:59:54.285Z,56.35
2022-09-20T04:02:37.325Z,56.42
2022-09-20T04:05:11.545Z,56.35
2022-09-20T04:07:49.767Z,56.47
2022-09-20T04:10:36.996Z,56.69
2022-09-20T04:13:18.686Z,56.43
2022-09-20T04:16:07.479Z,56.80
2022-09-20T04:18:41.549Z,57.30
2022-09-20T04:21:15.250Z,57.51
2022-09-20T04:23:51.148Z,57.72
2022-09-20T04:26:25.508Z,57.41
2022-09-20T04:29:00.180Z,57.49
2022-09-20T04:31:37.630Z,57.83
2022-09-20T04:34:13.707Z,57.85
2022-09-20T04:37:02.807Z,57.90
2022-09-20T04:39:43.845Z,57.71
2022-09-20T04:42:56.642Z,57.86
2022-09-20T04:45:58.683Z,57.75
2022-09-20T04:49:19.132Z,57.98
2022-09-20T04:52:15.124Z,58.40
2022-09-20T04:55:21.515Z,58.30
2022-09-20T04:58:28.903Z,58.19
2022-09-20T05:01:32.265Z,58.58
2022-09-20T05:04:28.357Z,58.87
2022-09-20T05:07:28.756Z,58.91
2022-09-20T05:10:35.544Z,59.60
2022-09-20T05:13:15.947Z,59.63
2022-09-20T05:15:57.699Z,59.78
2022-09-20T05:19:04.984Z,60.29
2022-09-20T05:21:51.003Z,60.50
2022-09-20T05:24:32.925Z,60.54
2022-09-20T05:27:17.637Z,60.33
2022-09-20T05:29:53.553Z,60.33
2022-09-20T05:32:29.048Z,60.58
2022-09-20T05:35:05.775Z,60.64
2022-09-20T05:37:46.024Z,61.32
2022-09-20T05:40:24.399Z,61.49
2022-09-20T05:43:00.389Z,61.56
2022-09-20T05:45:49.641Z,61.77
2022-09-20T05:48:27.503Z,61.58
2022-09-20T05:51:03.846Z,61.43
2022-09-20T05:54:01.766Z,61.76
2022-09-20T05:56:42.112Z,61.33
2022-09-20T05:59:35.704Z,61.57
2022-09-20T06:02:18.449Z,61.55
2022-09-20T06:04:57.265Z,61.20
2022-09-20T06:07:38.616Z,61.41
2022-09-20T06:10:33.222Z,61.16
2022-09-20T06:13:16.112Z,61.13
2022-09-20T06:15:49.158Z,61.50
2022-09-20T06:18:26.899Z,61.57
2022-09-20T06:21:05.157Z,61.63
2022-09-20T06:23:36.595Z,61.31
2022-09-20T06:26:09.795Z,61.03
2022-09-20T06:28:41.265Z,60.81
2022-09-20T06:31:11.323Z,60.87
2022-09-20T06:33:45.003Z,61.08
2022-09-20T06:36:33.672Z,60.88
2022-09-20T06:39:30.183Z,61.59
2022-09-20T06:41:58.263Z,61.58
2022-09-20T06:44:27.324Z,61.48
2022-09-20T06:46:55.706Z,61.20
2022-09-20T06:49:24.081Z,61.55
2022-09-20T06:51:52.431Z,61.22
2022-09-20T06:54:23.878Z,61.28
2022-09-20T06:56:52.568Z,61.54
2022-09-20T06:59:20.437Z,61.95
2022-09-20T07:01:48.484Z,62.20
2022-09-20T07:04:18.212Z,62.43
2022-09-20T07:06:46.124Z,62.54
2022-09-20T07:09:14.004Z,62.56
2022-09-20T07:11:46.171Z,62.61
2022-09-20T07:14:15.552Z,62.82
2022-09-20T07:16:43.519Z,62.69
2022-09-20T07:19:11.444Z,62.64
2022-09-20T07:21:39.324Z,62.65
2022-09-20T07:24:07.234Z,62.66
2022-09-20T07:26:35.216Z,62.90
2022-09-20T07:29:04.656Z,62.84
2022-09-20T07:31:32.961Z,62.28
2022-09-20T07:34:00.878Z,62.50
2022-09-20T07:36:29.276Z,62.47
2022-09-20T07:38:57.396Z,62.60
2022-09-20T07:41:26.616Z,62.46
2022-09-20T07:43:54.525Z,62.33
2022-09-20T07:46:24.282Z,62.41
2022-09-20T07:48:52.465Z,62.15
2022-09-20T07:51:20.391Z,61.80
2022-09-20T07:53:48.284Z,61.70
2022-09-20T07:56:18.306Z,61.20
2022-09-20T07:58:50.025Z,61.01
2022-09-20T08:01:21.013Z,60.95
2022-09-20T08:03:51.131Z,60.71
2022-09-20T08:06:21.263Z,60.51
2022-09-20T08:08:49.378Z,60.41
2022-09-20T08:11:20.343Z,60.52
2022-09-20T08:14:06.973Z,59.73
2022-09-20T08:16:39.281Z,59.43
2022-09-20T08:19:08.806Z,59.25
2022-09-20T08:21:37.945Z,59.59
2022-09-20T08:24:06.101Z,58.68
2022-09-20T08:26:35.732Z,57.70
2022-09-20T08:29:05.354Z,56.67
2022-09-20T08:31:36.642Z,56.38
2022-09-20T08:34:06.529Z,55.41
2022-09-20T08:36:37.964Z,55.74
2022-09-20T08:41:58.179Z,54.14
2022-09-20T08:44:34.948Z,53.35
2022-09-20T08:47:10.016Z,51.64
2022-09-20T08:49:38.843Z,51.54
2022-09-20T08:52:12.401Z,51.32
2022-09-20T08:54:43.533Z,51.32
2022-09-20T08:57:15.857Z,51.28
2022-09-20T08:59:44.092Z,51.18
2022-09-20T09:02:17.362Z,50.92
2022-09-20T09:04:46.438Z,51.42
2022-09-20T09:07:19.793Z,51.26
2022-09-20T09:09:49.176Z,50.94
2022-09-20T09:12:22.959Z,51.23
2022-09-20T09:14:55.187Z,50.55
2022-09-20T09:17:28.462Z,49.96
2022-09-20T09:19:58.023Z,49.46
2022-09-20T09:22:35.222Z,49.52
2022-09-20T09:25:29.440Z,49.68
2022-09-20T09:27:59.069Z,49.57
2022-09-20T09:30:30.681Z,49.71
2022-09-20T09:33:18.205Z,49.93
2022-09-20T09:35:54.546Z,50.21
2022-09-20T09:38:26.800Z,50.38
2022-09-20T09:40:56.682Z,50.13
2022-09-20T09:43:29.096Z,50.02
2022-09-20T09:46:16.683Z,49.53
2022-09-20T09:48:49.743Z,47.19
2022-09-20T09:51:19.663Z,47.13
2022-09-20T09:53:50.128Z,47.13
2022-09-20T09:56:33.924Z,47.29
2022-09-20T09:59:10.579Z,46.59
2022-09-20T10:01:47.408Z,47.29
2022-09-20T10:04:21.650Z,47.99
2022-09-20T10:06:54.629Z,47.80
2022-09-20T10:09:54.473Z,47.75
2022-09-20T10:12:34.281Z,49.00
2022-09-20T10:15:14.888Z,48.71
2022-09-20T10:17:52.796Z,48.02
2022-09-20T10:20:33.668Z,48.40
2022-09-20T10:23:44.987Z,48.45
2022-09-20T10:26:21.715Z,48.12
2022-09-20T10:29:05.729Z,48.25
2022-09-20T10:31:47.480Z,48.74
2022-09-20T10:34:39.322Z,48.22
2022-09-20T10:37:17.228Z,48.66
2022-09-20T10:39:53.164Z,48.61
2022-09-20T10:42:49.341Z,48.30
2022-09-20T10:45:42.101Z,48.35
2022-09-20T10:48:19.348Z,48.05
2022-09-20T10:50:53.617Z,48.52
2022-09-20T10:53:30.134Z,47.16
2022-09-20T10:56:10.570Z,45.59
2022-09-20T10:59:17.321Z,45.36
2022-09-20T11:01:56.893Z,45.53
2022-09-20T11:04:56.019Z,46.85
2022-09-20T11:07:39.264Z,45.28
2022-09-20T11:10:17.826Z,45.00
2022-09-20T11:12:51.304Z,45.63
2022-09-20T11:15:25.799Z,45.19
2022-09-20T11:18:02.445Z,45.28
2022-09-20T11:20:34.641Z,44.16
2022-09-20T11:23:09.991Z,43.86
2022-09-20T11:25:44.812Z,43.68
2022-09-20T11:28:19.405Z,43.45
2022-09-20T11:30:58.071Z,43.66
2022-09-20T11:33:30.277Z,41.24
2022-09-20T11:36:01.724Z,41.79
2022-09-20T11:38:36.557Z,40.72
2022-09-20T11:41:10.213Z,42.41
2022-09-20T11:43:42.742Z,42.86
2022-09-20T11:46:16.721Z,44.36
2022-09-20T11:48:49.769Z,45.83
2022-09-20T11:51:39.498Z,46.29
2022-09-20T11:54:33.117Z,46.29
2022-09-20T11:57:01.116Z,44.63
2022-09-20T11:59:35.125Z,45.12
2022-09-20T12:02:13.930Z,45.77
2022-09-20T12:04:47.840Z,46.57
2022-09-20T12:07:20.195Z,46.58
2022-09-20T12:09:55.252Z,46.83
2022-09-20T12:12:36.300Z,47.28
2022-09-20T12:15:07.533Z,46.14
2022-09-20T12:18:27.712Z,45.92
2022-09-20T12:21:15.315Z,47.02
2022-09-20T12:24:23.647Z,46.62
2022-09-20T12:26:57.375Z,45.83
2022-09-20T12:29:55.104Z,44.97
2022-09-20T12:32:46.118Z,45.42
2022-09-20T12:36:00.067Z,43.28
2022-09-20T12:38:33.183Z,42.17
2022-09-20T12:41:08.903Z,41.42
2022-09-20T12:43:40.181Z,41.63
2022-09-20T12:46:12.033Z,40.69
2022-09-20T12:48:40.216Z,40.90
2022-09-20T12:51:40.687Z,42.09
2022-09-20T12:54:13.972Z,41.66
2022-09-20T12:56:46.213Z,42.89
2022-09-20T12:59:27.216Z,42.35
2022-09-20T13:01:55.252Z,42.74
2022-09-20T13:04:51.964Z,42.64
2022-09-20T13:07:43.842Z,43.15
2022-09-20T13:10:26.239Z,43.34
2022-09-20T13:13:00.195Z,43.13
2022-09-20T13:15:28.480Z,44.55
2022-09-20T13:18:00.772Z,44.70
2022-09-20T13:20:31.466Z,43.35
2022-09-20T13:23:00.745Z,44.04
2022-09-20T13:25:32.091Z,44.12
2022-09-20T13:28:08.325Z,43.51
2022-09-20T13:30:36.351Z,43.14
2022-09-20T13:33:22.013Z,43.37
2022-09-20T13:35:53.508Z,42.73
2022-09-20T13:38:24.390Z,42.52
2022-09-20T13:41:00.829Z,43.05
2022-09-20T13:43:33.383Z,42.68
2022-09-20T13:46:08.110Z,42.69
2022-09-20T13:48:36.272Z,42.55
2022-09-20T13:51:04.806Z,42.43
2022-09-20T13:53:41.634Z,42.17
2022-09-20T13:56:17.599Z,41.80
2022-09-20T13:58:45.748Z,42.25
2022-09-20T14:01:24.324Z,41.41
2022-09-20T14:03:53.920Z,41.47
2022-09-20T14:06:28.118Z,43.12
2022-09-20T14:08:58.434Z,42.82
2022-09-20T14:11:31.015Z,43.09
2022-09-20T14:14:01.642Z,43.55
2022-09-20T14:16:32.712Z,42.13
2022-09-20T14:19:02.164Z,42.19
2022-09-20T14:21:34.687Z,42.44
2022-09-20T14:24:06.393Z,42.16
2022-09-20T14:26:37.168Z,41.95
2022-09-20T14:29:30.620Z,42.41
2022-09-20T14:32:01.296Z,43.78
2022-09-20T14:34:29.613Z,45.80
2022-09-20T14:37:06.644Z,47.95
2022-09-20T14:39:39.989Z,48.14
2022-09-20T14:42:21.707Z,48.73
2022-09-20T14:44:52.622Z,49.73
2022-09-20T14:47:28.579Z,49.83
2022-09-20T14:49:58.069Z,49.54
2022-09-20T14:52:38.127Z,48.06
2022-09-20T14:55:20.260Z,48.14
2022-09-20T14:57:50.125Z,48.51
2022-09-20T15:00:19.512Z,48.60
2022-09-20T15:02:48.428Z,48.94
2022-09-20T15:05:23.875Z,48.40
2022-09-20T15:07:52.637Z,47.57
2022-09-20T15:10:20.578Z,46.62
2022-09-20T15:12:49.866Z,46.64
2022-09-20T15:15:19.853Z,46.02
2022-09-20T15:17:48.780Z,45.12
2022-09-20T15:20:24.218Z,44.63
2022-09-20T15:22:52.671Z,45.73
2022-09-20T15:25:21.923Z,44.89
2022-09-20T15:27:51.796Z,44.55
2022-09-20T15:30:21.044Z,45.65
2022-09-20T15:32:49.097Z,45.89
2022-09-20T15:35:17.367Z,46.00
2022-09-20T15:37:45.506Z,46.31
2022-09-20T15:40:13.551Z,46.14
2022-09-20T15:42:41.782Z,45.47
2022-09-20T15:45:12.353Z,46.46
2022-09-20T15:47:41.256Z,46.68
2022-09-20T15:50:10.835Z,46.56
2022-09-20T15:52:41.612Z,47.55
2022-09-20T15:55:10.875Z,47.84
2022-09-20T15:57:40.708Z,47.96
2022-09-20T16:00:09.689Z,47.82
2022-09-20T16:02:39.098Z,48.30
2022-09-20T16:05:09.780Z,48.99
2022-09-20T16:07:38.085Z,48.96
2022-09-20T16:10:06.753Z,49.07
2022-09-20T16:12:34.822Z,48.66
2022-09-20T16:15:02.863Z,48.56
2022-09-20T16:17:48.745Z,47.87
2022-09-20T16:20:17.985Z,47.71
2022-09-20T16:22:47.001Z,47.82
2022-09-20T16:25:16.013Z,48.91
2022-09-20T16:27:43.890Z,48.60
2022-09-20T16:30:13.206Z,49.20
2022-09-20T16:32:41.719Z,49.18
2022-09-20T16:35:09.829Z,49.38
2022-09-20T16:37:39.390Z,49.58
2022-09-20T16:40:10.683Z,49.74
2022-09-20T16:42:39.075Z,50.07
2022-09-20T16:45:08.176Z,50.27
2022-09-20T16:47:41.025Z,50.30
2022-09-20T16:50:11.185Z,50.71
2022-09-20T16:52:40.500Z,50.23
2022-09-20T16:55:10.969Z,50.53
2022-09-20T16:57:39.289Z,50.64
2022-09-20T17:00:08.651Z,50.56
2022-09-20T17:02:37.086Z,50.60
2022-09-20T17:05:05.582Z,51.00
2022-09-20T17:07:33.683Z,50.56
2022-09-20T17:10:02.906Z,50.89
2022-09-20T17:12:33.881Z,51.16
2022-09-20T17:15:01.719Z,51.58
2022-09-20T17:17:29.948Z,51.27
2022-09-20T17:19:57.800Z,51.38
2022-09-20T17:22:25.655Z,51.33
2022-09-20T17:24:53.462Z,51.71
2022-09-20T17:27:24.029Z,51.35
2022-09-20T17:29:52.698Z,51.51
2022-09-20T17:32:20.653Z,51.63
2022-09-20T17:34:48.577Z,52.15
2022-09-20T17:37:16.659Z,52.45
2022-09-20T17:39:44.770Z,52.40
2022-09-20T17:42:12.581Z,52.77
2022-09-20T17:44:41.817Z,53.05
2022-09-20T17:47:09.736Z,53.42
2022-09-20T17:49:38.426Z,53.62
2022-09-20T17:52:08.032Z,53.89
2022-09-20T17:54:35.912Z,54.10
2022-09-20T17:57:05.536Z,53.61
2022-09-20T17:59:34.401Z,54.13
2022-09-20T18:02:03.711Z,54.32
2022-09-20T18:04:31.639Z,54.36
2022-09-20T18:07:00.961Z,54.51
2022-09-20T18:09:29.040Z,54.29
2022-09-20T18:11:57.566Z,54.54
2022-09-20T18:14:27.391Z,54.91
2022-09-20T18:16:57.991Z,54.92
2022-09-20T18:19:32.644Z,55.30
2022-09-20T18:22:01.681Z,55.34
2022-09-20T18:24:30.421Z,55.48
2022-09-20T18:26:58.237Z,55.32
2022-09-20T18:29:27.832Z,55.53
2022-09-20T18:31:56.820Z,55.69
2022-09-20T18:34:31.424Z,55.53
2022-09-20T18:37:01.230Z,55.74
2022-09-20T18:39:32.411Z,56.31
2022-09-20T18:42:00.929Z,56.22
2022-09-20T18:44:32.327Z,56.10
2022-09-20T18:47:01.357Z,56.13
2022-09-20T18:49:31.285Z,56.47
2022-09-20T18:51:59.485Z,56.68
2022-09-20T18:54:32.750Z,56.44
2022-09-20T18:57:01.256Z,56.89
2022-09-20T18:59:30.025Z,57.00
2022-09-20T19:02:16.957Z,57.30
2022-09-20T19:05:16.637Z,57.22
2022-09-20T19:07:54.991Z,57.17
2022-09-20T19:10:27.910Z,57.32
2022-09-20T19:13:03.556Z,57.50
2022-09-20T19:15:43.960Z,57.68
2022-09-20T19:18:31.847Z,57.20
2022-09-20T19:21:17.077Z,57.63
2022-09-20T19:24:03.248Z,57.33
2022-09-20T19:26:37.903Z,57.33
2022-09-20T19:29:18.042Z,57.29
2022-09-20T19:31:49.134Z,57.83
2022-09-20T19:34:21.278Z,57.70
2022-09-20T19:37:03.179Z,57.92
2022-09-20T19:39:47.971Z,58.26
2022-09-20T19:42:25.913Z,57.87
2022-09-20T19:45:04.250Z,57.80
2022-09-20T19:47:47.170Z,57.58
2022-09-20T19:50:22.939Z,57.54
2022-09-20T19:52:52.645Z,57.65
2022-09-20T19:55:21.277Z,57.64
2022-09-20T19:57:49.629Z,57.91
2022-09-20T20:00:19.819Z,58.06
2022-09-20T20:02:49.285Z,58.25
2022-09-20T20:05:19.401Z,57.89
2022-09-20T20:07:57.085Z,57.83
2022-09-20T20:10:32.047Z,58.22
2022-09-20T20:13:30.039Z,58.15
2022-09-20T20:16:03.001Z,58.65
2022-09-20T20:18:40.886Z,58.09
2022-09-20T20:21:16.543Z,58.75
2022-09-20T20:24:05.702Z,58.69
2022-09-20T20:26:33.879Z,58.76
2022-09-20T20:29:01.778Z,58.72
2022-09-20T20:31:30.319Z,59.26
2022-09-20T20:33:58.488Z,59.31
2022-09-20T20:36:26.391Z,58.72
2022-09-20T20:38:55.591Z,58.83
2022-09-20T20:41:23.734Z,58.24
2022-09-20T20:43:57.166Z,59.08
2022-09-20T20:46:25.770Z,58.40
2022-09-20T20:48:53.990Z,58.99
2022-09-20T20:51:23.563Z,59.82
2022-09-20T20:53:53.801Z,59.20
2022-09-20T20:56:26.272Z,59.11
2022-09-20T20:58:55.091Z,58.99
2022-09-20T21:01:25.244Z,59.00
2022-09-20T21:03:54.832Z,58.90
2022-09-20T21:06:25.041Z,58.75
2022-09-20T21:08:53.432Z,59.27
2022-09-20T21:11:24.408Z,59.50
2022-09-20T21:13:52.712Z,59.28
2022-09-20T21:16:22.932Z,59.24
2022-09-20T21:18:51.470Z,59.23
2022-09-20T21:21:21.183Z,59.10
2022-09-20T21:23:50.919Z,59.27
2022-09-20T21:26:19.521Z,59.23
2022-09-20T21:28:52.075Z,59.29
2022-09-20T21:31:21.318Z,59.13
2022-09-20T21:33:49.402Z,59.22
2022-09-20T21:36:19.389Z,58.84
2022-09-20T21:38:47.652Z,59.37
2022-09-20T21:41:19.904Z,58.97
2022-09-20T21:43:50.443Z,59.10
2022-09-20T21:46:19.880Z,58.73
2022-09-20T21:48:48.998Z,59.32
2022-09-20T21:51:18.255Z,59.69
2022-09-20T21:53:46.469Z,59.20
2022-09-20T21:56:17.603Z,59.45
2022-09-20T21:58:45.917Z,59.23
2022-09-20T22:01:17.670Z,59.05
2022-09-20T22:03:47.077Z,58.95
2022-09-20T22:06:17.202Z,59.23
2022-09-20T22:08:48.484Z,59.32
2022-09-20T22:11:17.556Z,59.14
2022-09-20T22:13:47.012Z,59.03
2022-09-20T22:16:18.827Z,59.33
2022-09-20T22:18:47.244Z,59.65
2022-09-20T22:21:17.156Z,59.55
2022-09-20T22:23:45.650Z,59.41
2022-09-20T22:26:16.755Z,59.11
2022-09-20T22:28:45.348Z,59.63
2022-09-20T22:31:15.387Z,59.84
2022-09-20T22:33:46.792Z,59.22
2022-09-20T22:36:16.794Z,58.98
2022-09-20T22:38:47.001Z,58.54
2022-09-20T22:41:17.845Z,58.47
2022-09-20T22:43:46.247Z,58.73
2022-09-20T22:46:15.666Z,58.32
2022-09-20T22:48:45.795Z,58.40
2022-09-20T22:51:16.903Z,58.87
2022-09-20T22:53:46.287Z,58.74
2022-09-20T22:56:21.347Z,58.95
2022-09-20T22:58:51.668Z,59.21
2022-09-20T23:01:21.764Z,58.87
2022-09-20T23:03:56.759Z,59.28
2022-09-20T23:06:27.042Z,59.66
2022-09-20T23:08:57.466Z,59.85
2022-09-20T23:11:26.337Z,60.33
2022-09-20T23:13:55.957Z,60.08
2022-09-20T23:16:26.315Z,59.66
2022-09-20T23:18:57.188Z,59.62
2022-09-20T23:21:26.131Z,58.92
2022-09-20T23:23:55.248Z,59.08
2022-09-20T23:26:25.374Z,59.23
2022-09-20T23:28:55.711Z,59.15
2022-09-20T23:31:24.991Z,59.48
2022-09-20T23:33:56.317Z,59.87
2022-09-20T23:36:26.158Z,60.00
2022-09-20T23:38:54.684Z,59.27
2022-09-20T23:41:24.692Z,59.00
2022-09-20T23:43:52.987Z,58.85
2022-09-20T23:46:23.508Z,59.33
2022-09-20T23:48:51.585Z,58.87
2022-09-20T23:51:22.938Z,58.87
2022-09-20T23:53:51.789Z,59.08
2022-09-20T23:56:20.725Z,59.66
2022-09-20T23:58:49.727Z,59.56
